sensor_id;sensor_type;location;lat;lon;timestamp;P1;durP1;ratioP1;P2;durP2;ratioP2
9759;SDS011;4919;48.792;9.202;2023-05-10T00:00:32;1.87;;;1.73;;
9759;SDS011;4919;48.792;9.202;2023-05-10T00:03:16;2.43;;;1.93;;
9759;SDS011;4919;48.792;9.202;2023-05-10T00:06:01;1.80;;;1.70;;
9759;SDS011;4919;48.792;9.202;2023-05-10T00:08:46;3.00;;;2.00;;
9759;SDS011;4919;48.792;9.202;2023-05-10T00:11:31;2.33;;;1.77;;
9759;SDS011;4919;48.792;9.202;2023-05-10T00:14:16;2.27;;;2.07;;
9759;SDS011;4919;48.792;9.202;2023-05-10T00:17:01;2.73;;;2.33;;
9759;SDS011;4919;48.792;9.202;2023-05-10T00:19:46;2.63;;;2.20;;
9759;SDS011;4919;48.792;9.202;2023-05-10T00:22:31;2.10;;;1.73;;
9759;SDS011;4919;48.792;9.202;2023-05-10T00:25:16;2.27;;;1.93;;
9759;SDS011;4919;48.792;9.202;2023-05-10T00:28:01;2.13;;;1.77;;
9759;SDS011;4919;48.792;9.202;2023-05-10T00:30:45;1.77;;;1.67;;
9759;SDS011;4919;48.792;9.202;2023-05-10T00:33:30;2.53;;;1.93;;
9759;SDS011;4919;48.792;9.202;2023-05-10T00:36:15;2.30;;;1.97;;
9759;SDS011;4919;48.792;9.202;2023-05-10T00:39:00;2.30;;;1.87;;
9759;SDS011;4919;48.792;9.202;2023-05-10T00:41:45;1.70;;;1.60;;
9759;SDS011;4919;48.792;9.202;2023-05-10T00:44:30;2.40;;;2.20;;
9759;SDS011;4919;48.792;9.202;2023-05-10T00:47:15;2.10;;;1.90;;
9759;SDS011;4919;48.792;9.202;2023-05-10T00:50:01;2.33;;;1.60;;
9759;SDS011;4919;48.792;9.202;2023-05-10T00:52:46;2.20;;;1.77;;
9759;SDS011;4919;48.792;9.202;2023-05-10T00:55:31;2.00;;;1.80;;
9759;SDS011;4919;48.792;9.202;2023-05-10T00:58:16;2.83;;;1.80;;
9759;SDS011;4919;48.792;9.202;2023-05-10T01:01:01;2.77;;;1.83;;
9759;SDS011;4919;48.792;9.202;2023-05-10T01:03:46;1.70;;;1.60;;
9759;SDS011;4919;48.792;9.202;2023-05-10T01:06:31;2.13;;;1.60;;
9759;SDS011;4919;48.792;9.202;2023-05-10T01:09:16;2.60;;;1.90;;
9759;SDS011;4919;48.792;9.202;2023-05-10T01:12:01;2.20;;;1.73;;
9759;SDS011;4919;48.792;9.202;2023-05-10T01:14:46;1.87;;;1.63;;
9759;SDS011;4919;48.792;9.202;2023-05-10T01:17:32;2.13;;;1.80;;
9759;SDS011;4919;48.792;9.202;2023-05-10T01:20:17;2.50;;;2.03;;
9759;SDS011;4919;48.792;9.202;2023-05-10T01:26:47;2.03;;;1.83;;
9759;SDS011;4919;48.792;9.202;2023-05-10T01:29:35;2.73;;;1.83;;
9759;SDS011;4919;48.792;9.202;2023-05-10T01:38:51;1.87;;;1.70;;
9759;SDS011;4919;48.792;9.202;2023-05-10T01:41:48;2.00;;;1.80;;
9759;SDS011;4919;48.792;9.202;2023-05-10T01:44:45;1.90;;;1.70;;
9759;SDS011;4919;48.792;9.202;2023-05-10T01:47:43;1.80;;;1.70;;
9759;SDS011;4919;48.792;9.202;2023-05-10T01:50:33;1.93;;;1.73;;
9759;SDS011;4919;48.792;9.202;2023-05-10T01:53:19;2.95;;;2.00;;
9759;SDS011;4919;48.792;9.202;2023-05-10T01:56:05;1.80;;;1.70;;
9759;SDS011;4919;48.792;9.202;2023-05-10T01:58:52;2.10;;;1.83;;
9759;SDS011;4919;48.792;9.202;2023-05-10T02:01:39;1.67;;;1.53;;
9759;SDS011;4919;48.792;9.202;2023-05-10T02:04:24;2.50;;;1.97;;
9759;SDS011;4919;48.792;9.202;2023-05-10T02:07:10;1.97;;;1.87;;
9759;SDS011;4919;48.792;9.202;2023-05-10T02:09:56;2.77;;;1.70;;
9759;SDS011;4919;48.792;9.202;2023-05-10T02:12:43;3.10;;;2.07;;
9759;SDS011;4919;48.792;9.202;2023-05-10T02:15:30;1.97;;;1.80;;
9759;SDS011;4919;48.792;9.202;2023-05-10T02:18:16;2.37;;;2.17;;
9759;SDS011;4919;48.792;9.202;2023-05-10T02:21:02;2.30;;;1.97;;
9759;SDS011;4919;48.792;9.202;2023-05-10T02:23:48;2.07;;;1.80;;
9759;SDS011;4919;48.792;9.202;2023-05-10T02:26:35;1.77;;;1.67;;
9759;SDS011;4919;48.792;9.202;2023-05-10T02:29:22;1.80;;;1.70;;
9759;SDS011;4919;48.792;9.202;2023-05-10T02:32:08;2.63;;;2.00;;
9759;SDS011;4919;48.792;9.202;2023-05-10T02:34:54;1.57;;;1.47;;
9759;SDS011;4919;48.792;9.202;2023-05-10T02:37:41;1.83;;;1.70;;
9759;SDS011;4919;48.792;9.202;2023-05-10T02:40:27;3.27;;;2.30;;
9759;SDS011;4919;48.792;9.202;2023-05-10T02:43:14;2.43;;;2.13;;
9759;SDS011;4919;48.792;9.202;2023-05-10T02:46:01;2.10;;;1.80;;
9759;SDS011;4919;48.792;9.202;2023-05-10T02:48:46;2.40;;;2.10;;
9759;SDS011;4919;48.792;9.202;2023-05-10T02:51:31;3.30;;;2.17;;
9759;SDS011;4919;48.792;9.202;2023-05-10T02:54:19;1.87;;;1.77;;
9759;SDS011;4919;48.792;9.202;2023-05-10T02:57:08;2.03;;;1.77;;
9759;SDS011;4919;48.792;9.202;2023-05-10T02:59:58;2.30;;;1.70;;
9759;SDS011;4919;48.792;9.202;2023-05-10T03:02:44;2.17;;;1.90;;
9759;SDS011;4919;48.792;9.202;2023-05-10T03:05:29;2.90;;;2.30;;
9759;SDS011;4919;48.792;9.202;2023-05-10T03:08:14;3.00;;;1.73;;
9759;SDS011;4919;48.792;9.202;2023-05-10T03:17:10;2.30;;;2.10;;
9759;SDS011;4919;48.792;9.202;2023-05-10T03:20:08;2.17;;;1.87;;
9759;SDS011;4919;48.792;9.202;2023-05-10T03:23:00;1.53;;;1.43;;
9759;SDS011;4919;48.792;9.202;2023-05-10T03:25:51;2.53;;;1.90;;
9759;SDS011;4919;48.792;9.202;2023-05-10T03:28:36;2.07;;;1.80;;
9759;SDS011;4919;48.792;9.202;2023-05-10T03:31:21;1.97;;;1.77;;
9759;SDS011;4919;48.792;9.202;2023-05-10T03:34:06;1.63;;;1.53;;
9759;SDS011;4919;48.792;9.202;2023-05-10T03:36:51;2.50;;;1.90;;
9759;SDS011;4919;48.792;9.202;2023-05-10T03:39:36;1.90;;;1.60;;
9759;SDS011;4919;48.792;9.202;2023-05-10T03:42:21;2.23;;;2.00;;
9759;SDS011;4919;48.792;9.202;2023-05-10T03:45:06;3.27;;;1.93;;
9759;SDS011;4919;48.792;9.202;2023-05-10T03:47:52;1.77;;;1.67;;
9759;SDS011;4919;48.792;9.202;2023-05-10T03:50:37;2.50;;;1.93;;
9759;SDS011;4919;48.792;9.202;2023-05-10T03:53:21;1.90;;;1.63;;
9759;SDS011;4919;48.792;9.202;2023-05-10T03:56:06;1.93;;;1.70;;
9759;SDS011;4919;48.792;9.202;2023-05-10T03:58:51;1.60;;;1.50;;
9759;SDS011;4919;48.792;9.202;2023-05-10T04:01:36;1.77;;;1.67;;
9759;SDS011;4919;48.792;9.202;2023-05-10T04:04:21;1.60;;;1.50;;
9759;SDS011;4919;48.792;9.202;2023-05-10T04:07:06;2.70;;;1.97;;
9759;SDS011;4919;48.792;9.202;2023-05-10T04:09:51;2.10;;;1.80;;
9759;SDS011;4919;48.792;9.202;2023-05-10T04:12:36;1.80;;;1.50;;
9759;SDS011;4919;48.792;9.202;2023-05-10T04:15:21;1.90;;;1.70;;
9759;SDS011;4919;48.792;9.202;2023-05-10T04:18:05;1.73;;;1.63;;
9759;SDS011;4919;48.792;9.202;2023-05-10T04:20:50;1.60;;;1.50;;
9759;SDS011;4919;48.792;9.202;2023-05-10T04:23:35;2.33;;;1.67;;
9759;SDS011;4919;48.792;9.202;2023-05-10T04:26:20;1.60;;;1.50;;
9759;SDS011;4919;48.792;9.202;2023-05-10T04:29:04;1.67;;;1.53;;
9759;SDS011;4919;48.792;9.202;2023-05-10T04:31:49;1.97;;;1.70;;
9759;SDS011;4919;48.792;9.202;2023-05-10T04:34:34;1.90;;;1.70;;
9759;SDS011;4919;48.792;9.202;2023-05-10T04:37:19;1.60;;;1.50;;
9759;SDS011;4919;48.792;9.202;2023-05-10T04:40:04;2.83;;;2.00;;
9759;SDS011;4919;48.792;9.202;2023-05-10T04:42:49;1.73;;;1.50;;
9759;SDS011;4919;48.792;9.202;2023-05-10T04:45:34;2.43;;;1.50;;
9759;SDS011;4919;48.792;9.202;2023-05-10T04:48:19;1.43;;;1.33;;
9759;SDS011;4919;48.792;9.202;2023-05-10T04:51:04;2.97;;;1.60;;
9759;SDS011;4919;48.792;9.202;2023-05-10T04:53:49;1.57;;;1.47;;
9759;SDS011;4919;48.792;9.202;2023-05-10T04:56:34;1.70;;;1.43;;
9759;SDS011;4919;48.792;9.202;2023-05-10T04:59:18;2.53;;;1.47;;
9759;SDS011;4919;48.792;9.202;2023-05-10T05:02:03;2.07;;;1.87;;
9759;SDS011;4919;48.792;9.202;2023-05-10T05:04:49;2.63;;;1.60;;
9759;SDS011;4919;48.792;9.202;2023-05-10T05:07:34;2.13;;;1.70;;
9759;SDS011;4919;48.792;9.202;2023-05-10T05:10:19;2.20;;;1.77;;
9759;SDS011;4919;48.792;9.202;2023-05-10T05:13:03;3.27;;;1.90;;
9759;SDS011;4919;48.792;9.202;2023-05-10T05:15:48;2.27;;;1.40;;
9759;SDS011;4919;48.792;9.202;2023-05-10T05:18:33;2.03;;;1.60;;
9759;SDS011;4919;48.792;9.202;2023-05-10T05:21:19;2.93;;;1.50;;
9759;SDS011;4919;48.792;9.202;2023-05-10T05:24:04;1.80;;;1.70;;
9759;SDS011;4919;48.792;9.202;2023-05-10T05:26:49;1.77;;;1.43;;
9759;SDS011;4919;48.792;9.202;2023-05-10T05:29:34;1.43;;;1.30;;
9759;SDS011;4919;48.792;9.202;2023-05-10T05:32:19;2.27;;;1.57;;
9759;SDS011;4919;48.792;9.202;2023-05-10T05:35:03;2.20;;;1.40;;
9759;SDS011;4919;48.792;9.202;2023-05-10T05:37:48;1.80;;;1.70;;
9759;SDS011;4919;48.792;9.202;2023-05-10T05:40:33;1.80;;;1.30;;
9759;SDS011;4919;48.792;9.202;2023-05-10T05:43:18;2.10;;;1.60;;
9759;SDS011;4919;48.792;9.202;2023-05-10T05:46:03;1.60;;;1.50;;
9759;SDS011;4919;48.792;9.202;2023-05-10T05:48:48;2.03;;;1.40;;
9759;SDS011;4919;48.792;9.202;2023-05-10T05:51:33;1.70;;;1.47;;
9759;SDS011;4919;48.792;9.202;2023-05-10T05:54:18;1.40;;;1.30;;
9759;SDS011;4919;48.792;9.202;2023-05-10T05:57:02;1.60;;;1.40;;
9759;SDS011;4919;48.792;9.202;2023-05-10T05:59:47;1.77;;;1.30;;
9759;SDS011;4919;48.792;9.202;2023-05-10T06:02:32;2.00;;;1.50;;
9759;SDS011;4919;48.792;9.202;2023-05-10T06:05:17;1.50;;;1.40;;
9759;SDS011;4919;48.792;9.202;2023-05-10T06:08:02;1.40;;;1.30;;
9759;SDS011;4919;48.792;9.202;2023-05-10T06:10:47;1.97;;;1.23;;
9759;SDS011;4919;48.792;9.202;2023-05-10T06:13:31;1.40;;;1.30;;
9759;SDS011;4919;48.792;9.202;2023-05-10T06:16:16;1.47;;;1.37;;
9759;SDS011;4919;48.792;9.202;2023-05-10T06:19:02;1.90;;;1.40;;
9759;SDS011;4919;48.792;9.202;2023-05-10T06:21:47;1.67;;;1.30;;
9759;SDS011;4919;48.792;9.202;2023-05-10T06:24:31;1.23;;;1.13;;
9759;SDS011;4919;48.792;9.202;2023-05-10T06:27:16;1.50;;;1.40;;
9759;SDS011;4919;48.792;9.202;2023-05-10T06:30:01;1.60;;;1.50;;
9759;SDS011;4919;48.792;9.202;2023-05-10T06:32:46;1.60;;;1.50;;
9759;SDS011;4919;48.792;9.202;2023-05-10T06:35:31;1.53;;;1.30;;
9759;SDS011;4919;48.792;9.202;2023-05-10T06:38:16;1.50;;;1.40;;
9759;SDS011;4919;48.792;9.202;2023-05-10T06:41:01;1.73;;;1.20;;
9759;SDS011;4919;48.792;9.202;2023-05-10T06:43:46;1.50;;;1.30;;
9759;SDS011;4919;48.792;9.202;2023-05-10T06:46:30;1.50;;;1.40;;
9759;SDS011;4919;48.792;9.202;2023-05-10T06:49:15;1.60;;;1.50;;
9759;SDS011;4919;48.792;9.202;2023-05-10T06:52:00;1.50;;;1.40;;
9759;SDS011;4919;48.792;9.202;2023-05-10T06:54:45;2.27;;;1.70;;
9759;SDS011;4919;48.792;9.202;2023-05-10T06:57:30;2.53;;;1.40;;
9759;SDS011;4919;48.792;9.202;2023-05-10T07:00:15;1.83;;;1.50;;
9759;SDS011;4919;48.792;9.202;2023-05-10T07:03:01;1.50;;;1.40;;
9759;SDS011;4919;48.792;9.202;2023-05-10T07:05:46;1.43;;;1.33;;
9759;SDS011;4919;48.792;9.202;2023-05-10T07:08:31;1.27;;;1.20;;
9759;SDS011;4919;48.792;9.202;2023-05-10T07:11:15;1.30;;;1.20;;
9759;SDS011;4919;48.792;9.202;2023-05-10T07:14:00;1.30;;;1.20;;
9759;SDS011;4919;48.792;9.202;2023-05-10T07:16:45;1.70;;;1.50;;
9759;SDS011;4919;48.792;9.202;2023-05-10T07:19:30;1.30;;;1.20;;
9759;SDS011;4919;48.792;9.202;2023-05-10T07:22:15;1.57;;;1.40;;
9759;SDS011;4919;48.792;9.202;2023-05-10T07:25:00;1.17;;;1.10;;
9759;SDS011;4919;48.792;9.202;2023-05-10T07:27:44;2.77;;;1.20;;
9759;SDS011;4919;48.792;9.202;2023-05-10T07:30:29;1.07;;;1.07;;
9759;SDS011;4919;48.792;9.202;2023-05-10T07:33:14;1.20;;;1.10;;
9759;SDS011;4919;48.792;9.202;2023-05-10T07:35:59;1.33;;;1.20;;
9759;SDS011;4919;48.792;9.202;2023-05-10T07:38:44;1.13;;;1.10;;
9759;SDS011;4919;48.792;9.202;2023-05-10T07:41:29;1.57;;;1.30;;
9759;SDS011;4919;48.792;9.202;2023-05-10T07:44:14;2.10;;;1.20;;
9759;SDS011;4919;48.792;9.202;2023-05-10T07:46:59;1.97;;;1.30;;
9759;SDS011;4919;48.792;9.202;2023-05-10T07:49:44;1.60;;;1.40;;
9759;SDS011;4919;48.792;9.202;2023-05-10T07:52:28;1.93;;;1.40;;
9759;SDS011;4919;48.792;9.202;2023-05-10T07:55:13;1.43;;;1.27;;
9759;SDS011;4919;48.792;9.202;2023-05-10T07:57:58;1.40;;;1.30;;
9759;SDS011;4919;48.792;9.202;2023-05-10T08:00:43;1.47;;;1.30;;
9759;SDS011;4919;48.792;9.202;2023-05-10T08:03:28;1.20;;;1.10;;
9759;SDS011;4919;48.792;9.202;2023-05-10T08:06:13;1.73;;;1.00;;
9759;SDS011;4919;48.792;9.202;2023-05-10T08:09:01;1.30;;;1.23;;
9759;SDS011;4919;48.792;9.202;2023-05-10T08:11:46;1.40;;;1.30;;
9759;SDS011;4919;48.792;9.202;2023-05-10T08:14:31;1.30;;;1.20;;
9759;SDS011;4919;48.792;9.202;2023-05-10T08:17:16;1.40;;;1.30;;
9759;SDS011;4919;48.792;9.202;2023-05-10T08:20:01;1.63;;;1.40;;
9759;SDS011;4919;48.792;9.202;2023-05-10T08:22:45;1.83;;;1.40;;
9759;SDS011;4919;48.792;9.202;2023-05-10T08:25:31;1.50;;;1.30;;
9759;SDS011;4919;48.792;9.202;2023-05-10T08:28:15;1.00;;;1.00;;
9759;SDS011;4919;48.792;9.202;2023-05-10T08:31:00;1.60;;;1.50;;
9759;SDS011;4919;48.792;9.202;2023-05-10T08:33:45;1.43;;;1.20;;
9759;SDS011;4919;48.792;9.202;2023-05-10T08:36:30;1.30;;;1.20;;
9759;SDS011;4919;48.792;9.202;2023-05-10T08:39:15;1.53;;;1.27;;
9759;SDS011;4919;48.792;9.202;2023-05-10T08:42:01;1.07;;;1.07;;
9759;SDS011;4919;48.792;9.202;2023-05-10T08:44:48;1.40;;;1.30;;
9759;SDS011;4919;48.792;9.202;2023-05-10T08:47:35;1.67;;;1.40;;
9759;SDS011;4919;48.792;9.202;2023-05-10T08:50:21;1.30;;;1.20;;
9759;SDS011;4919;48.792;9.202;2023-05-10T08:53:06;1.40;;;1.30;;
9759;SDS011;4919;48.792;9.202;2023-05-10T08:55:57;2.40;;;1.20;;
9759;SDS011;4919;48.792;9.202;2023-05-10T08:58:42;1.30;;;1.20;;
9759;SDS011;4919;48.792;9.202;2023-05-10T09:01:27;1.83;;;1.40;;
9759;SDS011;4919;48.792;9.202;2023-05-10T09:04:13;1.63;;;1.33;;
9759;SDS011;4919;48.792;9.202;2023-05-10T09:06:57;1.40;;;1.30;;
9759;SDS011;4919;48.792;9.202;2023-05-10T09:09:42;1.30;;;1.20;;
9759;SDS011;4919;48.792;9.202;2023-05-10T09:12:28;1.40;;;1.27;;
9759;SDS011;4919;48.792;9.202;2023-05-10T09:15:14;1.50;;;1.40;;
9759;SDS011;4919;48.792;9.202;2023-05-10T09:18:00;1.40;;;1.30;;
9759;SDS011;4919;48.792;9.202;2023-05-10T09:20:45;1.43;;;1.33;;
9759;SDS011;4919;48.792;9.202;2023-05-10T09:23:30;1.43;;;1.33;;
9759;SDS011;4919;48.792;9.202;2023-05-10T09:26:14;1.97;;;1.50;;
9759;SDS011;4919;48.792;9.202;2023-05-10T09:28:59;1.40;;;1.30;;
9759;SDS011;4919;48.792;9.202;2023-05-10T09:31:49;1.50;;;1.40;;
9759;SDS011;4919;48.792;9.202;2023-05-10T09:34:35;1.37;;;1.27;;
9759;SDS011;4919;48.792;9.202;2023-05-10T09:37:20;1.20;;;1.10;;
9759;SDS011;4919;48.792;9.202;2023-05-10T09:40:14;1.53;;;1.43;;
9759;SDS011;4919;48.792;9.202;2023-05-10T09:43:04;1.50;;;1.37;;
9759;SDS011;4919;48.792;9.202;2023-05-10T09:45:51;1.47;;;1.37;;
9759;SDS011;4919;48.792;9.202;2023-05-10T09:48:39;1.57;;;1.30;;
9759;SDS011;4919;48.792;9.202;2023-05-10T09:51:27;1.67;;;1.50;;
9759;SDS011;4919;48.792;9.202;2023-05-10T09:54:15;1.33;;;1.23;;
9759;SDS011;4919;48.792;9.202;2023-05-10T09:57:00;1.53;;;1.43;;
9759;SDS011;4919;48.792;9.202;2023-05-10T09:59:45;1.40;;;1.30;;
9759;SDS011;4919;48.792;9.202;2023-05-10T10:02:31;1.40;;;1.30;;
9759;SDS011;4919;48.792;9.202;2023-05-10T10:05:17;1.47;;;1.30;;
9759;SDS011;4919;48.792;9.202;2023-05-10T10:08:02;1.40;;;1.30;;
9759;SDS011;4919;48.792;9.202;2023-05-10T10:10:48;1.50;;;1.40;;
9759;SDS011;4919;48.792;9.202;2023-05-10T10:13:33;2.00;;;1.60;;
9759;SDS011;4919;48.792;9.202;2023-05-10T10:16:19;1.27;;;1.17;;
9759;SDS011;4919;48.792;9.202;2023-05-10T10:19:05;1.50;;;1.40;;
9759;SDS011;4919;48.792;9.202;2023-05-10T10:21:50;1.80;;;1.70;;
9759;SDS011;4919;48.792;9.202;2023-05-10T10:24:35;1.40;;;1.30;;
9759;SDS011;4919;48.792;9.202;2023-05-10T10:36:47;2.17;;;1.60;;
9759;SDS011;4919;48.792;9.202;2023-05-10T10:39:32;1.40;;;1.30;;
9759;SDS011;4919;48.792;9.202;2023-05-10T10:42:43;1.43;;;1.33;;
9759;SDS011;4919;48.792;9.202;2023-05-10T10:45:27;1.83;;;1.73;;
9759;SDS011;4919;48.792;9.202;2023-05-10T10:48:20;3.13;;;1.50;;
9759;SDS011;4919;48.792;9.202;2023-05-10T10:51:05;1.40;;;1.30;;
9759;SDS011;4919;48.792;9.202;2023-05-10T10:53:50;1.40;;;1.30;;
9759;SDS011;4919;48.792;9.202;2023-05-10T10:56:35;1.10;;;1.10;;
9759;SDS011;4919;48.792;9.202;2023-05-10T10:59:26;1.40;;;1.30;;
9759;SDS011;4919;48.792;9.202;2023-05-10T11:02:32;1.90;;;1.40;;
9759;SDS011;4919;48.792;9.202;2023-05-10T11:08:29;1.40;;;1.30;;
9759;SDS011;4919;48.792;9.202;2023-05-10T11:11:15;1.73;;;1.53;;
9759;SDS011;4919;48.792;9.202;2023-05-10T11:14:04;1.43;;;1.33;;
9759;SDS011;4919;48.792;9.202;2023-05-10T11:16:49;1.40;;;1.30;;
9759;SDS011;4919;48.792;9.202;2023-05-10T11:19:35;1.30;;;1.20;;
9759;SDS011;4919;48.792;9.202;2023-05-10T11:22:20;1.30;;;1.20;;
9759;SDS011;4919;48.792;9.202;2023-05-10T11:25:05;1.50;;;1.40;;
9759;SDS011;4919;48.792;9.202;2023-05-10T11:27:50;1.53;;;1.43;;
9759;SDS011;4919;48.792;9.202;2023-05-10T11:30:36;1.33;;;1.23;;
9759;SDS011;4919;48.792;9.202;2023-05-10T11:33:21;1.50;;;1.40;;
9759;SDS011;4919;48.792;9.202;2023-05-10T11:36:10;1.40;;;1.30;;
9759;SDS011;4919;48.792;9.202;2023-05-10T11:39:02;1.77;;;1.47;;
9759;SDS011;4919;48.792;9.202;2023-05-10T11:41:48;1.43;;;1.33;;
9759;SDS011;4919;48.792;9.202;2023-05-10T11:44:33;1.43;;;1.33;;
9759;SDS011;4919;48.792;9.202;2023-05-10T11:47:18;1.60;;;1.40;;
9759;SDS011;4919;48.792;9.202;2023-05-10T11:50:03;1.60;;;1.50;;
9759;SDS011;4919;48.792;9.202;2023-05-10T11:52:52;1.60;;;1.50;;
9759;SDS011;4919;48.792;9.202;2023-05-10T11:55:38;1.40;;;1.30;;
9759;SDS011;4919;48.792;9.202;2023-05-10T11:58:23;1.40;;;1.30;;
9759;SDS011;4919;48.792;9.202;2023-05-10T12:01:07;1.00;;;1.00;;
9759;SDS011;4919;48.792;9.202;2023-05-10T12:03:54;1.17;;;1.13;;
9759;SDS011;4919;48.792;9.202;2023-05-10T12:06:40;1.20;;;1.20;;
9759;SDS011;4919;48.792;9.202;2023-05-10T12:09:25;1.33;;;1.23;;
9759;SDS011;4919;48.792;9.202;2023-05-10T12:12:15;1.70;;;1.60;;
9759;SDS011;4919;48.792;9.202;2023-05-10T12:15:01;2.43;;;1.40;;
9759;SDS011;4919;48.792;9.202;2023-05-10T12:17:47;1.50;;;1.40;;
9759;SDS011;4919;48.792;9.202;2023-05-10T12:20:33;1.40;;;1.30;;
9759;SDS011;4919;48.792;9.202;2023-05-10T12:23:18;1.93;;;1.57;;
9759;SDS011;4919;48.792;9.202;2023-05-10T12:26:04;1.33;;;1.23;;
9759;SDS011;4919;48.792;9.202;2023-05-10T12:28:49;1.40;;;1.30;;
9759;SDS011;4919;48.792;9.202;2023-05-10T12:31:45;1.40;;;1.30;;
9759;SDS011;4919;48.792;9.202;2023-05-10T12:34:43;1.50;;;1.40;;
9759;SDS011;4919;48.792;9.202;2023-05-10T12:37:31;1.50;;;1.40;;
9759;SDS011;4919;48.792;9.202;2023-05-10T12:40:16;1.50;;;1.40;;
9759;SDS011;4919;48.792;9.202;2023-05-10T12:43:00;1.53;;;1.43;;
9759;SDS011;4919;48.792;9.202;2023-05-10T12:45:45;1.57;;;1.30;;
9759;SDS011;4919;48.792;9.202;2023-05-10T12:48:31;1.53;;;1.43;;
9759;SDS011;4919;48.792;9.202;2023-05-10T12:51:15;1.40;;;1.30;;
9759;SDS011;4919;48.792;9.202;2023-05-10T12:54:01;1.40;;;1.30;;
9759;SDS011;4919;48.792;9.202;2023-05-10T12:56:46;1.63;;;1.30;;
9759;SDS011;4919;48.792;9.202;2023-05-10T12:59:31;1.40;;;1.30;;
9759;SDS011;4919;48.792;9.202;2023-05-10T13:02:16;1.33;;;1.23;;
9759;SDS011;4919;48.792;9.202;2023-05-10T13:05:01;1.33;;;1.27;;
9759;SDS011;4919;48.792;9.202;2023-05-10T13:07:46;1.40;;;1.30;;
9759;SDS011;4919;48.792;9.202;2023-05-10T13:10:31;1.63;;;1.50;;
9759;SDS011;4919;48.792;9.202;2023-05-10T13:13:16;1.50;;;1.40;;
9759;SDS011;4919;48.792;9.202;2023-05-10T13:16:01;1.40;;;1.30;;
9759;SDS011;4919;48.792;9.202;2023-05-10T13:18:45;1.50;;;1.40;;
9759;SDS011;4919;48.792;9.202;2023-05-10T13:21:30;1.60;;;1.50;;
9759;SDS011;4919;48.792;9.202;2023-05-10T13:24:15;1.00;;;1.00;;
9759;SDS011;4919;48.792;9.202;2023-05-10T13:27:00;1.40;;;1.30;;
9759;SDS011;4919;48.792;9.202;2023-05-10T13:29:45;1.50;;;1.40;;
9759;SDS011;4919;48.792;9.202;2023-05-10T13:32:30;1.20;;;1.20;;
9759;SDS011;4919;48.792;9.202;2023-05-10T13:35:14;1.30;;;1.20;;
9759;SDS011;4919;48.792;9.202;2023-05-10T13:37:59;2.03;;;1.40;;
9759;SDS011;4919;48.792;9.202;2023-05-10T13:40:44;1.47;;;1.37;;
9759;SDS011;4919;48.792;9.202;2023-05-10T13:43:29;1.70;;;1.37;;
9759;SDS011;4919;48.792;9.202;2023-05-10T13:46:14;1.53;;;1.43;;
9759;SDS011;4919;48.792;9.202;2023-05-10T13:48:59;1.50;;;1.40;;
9759;SDS011;4919;48.792;9.202;2023-05-10T13:51:44;1.37;;;1.27;;
9759;SDS011;4919;48.792;9.202;2023-05-10T13:54:29;1.50;;;1.40;;
9759;SDS011;4919;48.792;9.202;2023-05-10T13:57:13;1.10;;;1.10;;
9759;SDS011;4919;48.792;9.202;2023-05-10T13:59:58;1.50;;;1.40;;
9759;SDS011;4919;48.792;9.202;2023-05-10T14:02:43;1.80;;;1.30;;
9759;SDS011;4919;48.792;9.202;2023-05-10T14:05:31;1.40;;;1.30;;
9759;SDS011;4919;48.792;9.202;2023-05-10T14:08:16;1.97;;;1.63;;
9759;SDS011;4919;48.792;9.202;2023-05-10T14:11:01;1.30;;;1.23;;
9759;SDS011;4919;48.792;9.202;2023-05-10T14:13:46;1.40;;;1.30;;
9759;SDS011;4919;48.792;9.202;2023-05-10T14:16:31;1.40;;;1.30;;
9759;SDS011;4919;48.792;9.202;2023-05-10T14:19:16;1.20;;;1.20;;
9759;SDS011;4919;48.792;9.202;2023-05-10T14:22:00;1.50;;;1.40;;
9759;SDS011;4919;48.792;9.202;2023-05-10T14:24:45;1.43;;;1.33;;
9759;SDS011;4919;48.792;9.202;2023-05-10T14:27:31;1.70;;;1.47;;
9759;SDS011;4919;48.792;9.202;2023-05-10T14:30:16;1.70;;;1.60;;
9759;SDS011;4919;48.792;9.202;2023-05-10T14:33:01;1.63;;;1.47;;
9759;SDS011;4919;48.792;9.202;2023-05-10T14:35:46;1.17;;;1.17;;
9759;SDS011;4919;48.792;9.202;2023-05-10T14:38:31;1.40;;;1.30;;
9759;SDS011;4919;48.792;9.202;2023-05-10T14:41:17;1.83;;;1.60;;
9759;SDS011;4919;48.792;9.202;2023-05-10T14:44:02;1.80;;;1.70;;
9759;SDS011;4919;48.792;9.202;2023-05-10T14:46:47;1.40;;;1.30;;
9759;SDS011;4919;48.792;9.202;2023-05-10T14:49:32;1.63;;;1.50;;
9759;SDS011;4919;48.792;9.202;2023-05-10T14:52:16;1.40;;;1.30;;
9759;SDS011;4919;48.792;9.202;2023-05-10T14:55:01;1.63;;;1.53;;
9759;SDS011;4919;48.792;9.202;2023-05-10T14:57:46;1.50;;;1.40;;
9759;SDS011;4919;48.792;9.202;2023-05-10T15:00:31;1.80;;;1.40;;
9759;SDS011;4919;48.792;9.202;2023-05-10T15:03:16;1.40;;;1.30;;
9759;SDS011;4919;48.792;9.202;2023-05-10T15:06:00;1.10;;;1.10;;
9759;SDS011;4919;48.792;9.202;2023-05-10T15:08:45;1.60;;;1.50;;
9759;SDS011;4919;48.792;9.202;2023-05-10T15:11:30;1.60;;;1.50;;
9759;SDS011;4919;48.792;9.202;2023-05-10T15:14:15;1.10;;;1.10;;
9759;SDS011;4919;48.792;9.202;2023-05-10T15:17:00;1.60;;;1.50;;
9759;SDS011;4919;48.792;9.202;2023-05-10T15:19:45;1.30;;;1.20;;
9759;SDS011;4919;48.792;9.202;2023-05-10T15:22:30;1.20;;;1.20;;
9759;SDS011;4919;48.792;9.202;2023-05-10T15:25:15;1.60;;;1.50;;
9759;SDS011;4919;48.792;9.202;2023-05-10T15:28:00;1.40;;;1.30;;
9759;SDS011;4919;48.792;9.202;2023-05-10T15:30:45;1.50;;;1.40;;
9759;SDS011;4919;48.792;9.202;2023-05-10T15:33:30;1.50;;;1.40;;
9759;SDS011;4919;48.792;9.202;2023-05-10T15:36:15;1.60;;;1.50;;
9759;SDS011;4919;48.792;9.202;2023-05-10T15:39:00;1.43;;;1.33;;
9759;SDS011;4919;48.792;9.202;2023-05-10T15:41:45;1.50;;;1.40;;
9759;SDS011;4919;48.792;9.202;2023-05-10T15:44:29;1.47;;;1.37;;
9759;SDS011;4919;48.792;9.202;2023-05-10T15:47:14;1.40;;;1.30;;
9759;SDS011;4919;48.792;9.202;2023-05-10T15:49:59;1.57;;;1.47;;
9759;SDS011;4919;48.792;9.202;2023-05-10T15:52:44;1.43;;;1.33;;
9759;SDS011;4919;48.792;9.202;2023-05-10T15:55:29;1.40;;;1.30;;
9759;SDS011;4919;48.792;9.202;2023-05-10T15:58:14;1.33;;;1.23;;
9759;SDS011;4919;48.792;9.202;2023-05-10T16:00:59;1.93;;;1.50;;
9759;SDS011;4919;48.792;9.202;2023-05-10T16:03:43;1.50;;;1.40;;
9759;SDS011;4919;48.792;9.202;2023-05-10T16:06:29;1.40;;;1.30;;
9759;SDS011;4919;48.792;9.202;2023-05-10T16:09:13;2.90;;;1.97;;
9759;SDS011;4919;48.792;9.202;2023-05-10T16:11:58;3.67;;;1.70;;
9759;SDS011;4919;48.792;9.202;2023-05-10T16:14:43;1.90;;;1.70;;
9759;SDS011;4919;48.792;9.202;2023-05-10T16:17:28;2.10;;;1.90;;
9759;SDS011;4919;48.792;9.202;2023-05-10T16:20:13;2.50;;;2.20;;
9759;SDS011;4919;48.792;9.202;2023-05-10T16:23:00;2.20;;;2.00;;
9759;SDS011;4919;48.792;9.202;2023-05-10T16:25:47;2.83;;;1.90;;
9759;SDS011;4919;48.792;9.202;2023-05-10T16:28:32;2.10;;;1.90;;
9759;SDS011;4919;48.792;9.202;2023-05-10T16:31:17;3.77;;;2.07;;
9759;SDS011;4919;48.792;9.202;2023-05-10T16:34:02;1.83;;;1.60;;
9759;SDS011;4919;48.792;9.202;2023-05-10T16:36:47;2.10;;;1.90;;
9759;SDS011;4919;48.792;9.202;2023-05-10T16:39:32;2.00;;;1.80;;
9759;SDS011;4919;48.792;9.202;2023-05-10T16:42:16;2.00;;;1.80;;
9759;SDS011;4919;48.792;9.202;2023-05-10T16:45:01;2.47;;;2.10;;
9759;SDS011;4919;48.792;9.202;2023-05-10T16:47:46;1.60;;;1.50;;
9759;SDS011;4919;48.792;9.202;2023-05-10T16:50:31;2.13;;;1.93;;
9759;SDS011;4919;48.792;9.202;2023-05-10T16:53:16;2.37;;;2.07;;
9759;SDS011;4919;48.792;9.202;2023-05-10T16:56:01;2.17;;;1.93;;
9759;SDS011;4919;48.792;9.202;2023-05-10T16:58:46;1.87;;;1.63;;
9759;SDS011;4919;48.792;9.202;2023-05-10T17:01:32;2.00;;;1.80;;
9759;SDS011;4919;48.792;9.202;2023-05-10T17:04:17;2.50;;;2.20;;
9759;SDS011;4919;48.792;9.202;2023-05-10T17:07:02;2.20;;;1.93;;
9759;SDS011;4919;48.792;9.202;2023-05-10T17:09:47;2.13;;;1.93;;
9759;SDS011;4919;48.792;9.202;2023-05-10T17:12:31;2.57;;;2.00;;
9759;SDS011;4919;48.792;9.202;2023-05-10T17:15:16;2.20;;;2.00;;
9759;SDS011;4919;48.792;9.202;2023-05-10T17:18:01;2.17;;;1.70;;
9759;SDS011;4919;48.792;9.202;2023-05-10T17:20:47;2.10;;;1.90;;
9759;SDS011;4919;48.792;9.202;2023-05-10T17:23:31;2.70;;;2.10;;
9759;SDS011;4919;48.792;9.202;2023-05-10T17:26:16;2.57;;;1.90;;
9759;SDS011;4919;48.792;9.202;2023-05-10T17:29:03;1.80;;;1.70;;
9759;SDS011;4919;48.792;9.202;2023-05-10T17:31:47;2.60;;;2.10;;
9759;SDS011;4919;48.792;9.202;2023-05-10T17:34:32;2.37;;;1.97;;
9759;SDS011;4919;48.792;9.202;2023-05-10T17:37:17;2.67;;;2.00;;